createdAt,value
2017-10-20T00:00:10.633Z,997.03
2017-10-20T00:01:10.630Z,997.08
2017-10-20T00:02:10.628Z,997.10
2017-10-20T00:03:10.634Z,997.08
2017-10-20T00:04:10.625Z,997.05
2017-10-20T00:05:10.625Z,997.06
2017-10-20T00:06:10.621Z,997.06
2017-10-20T00:07:10.621Z,997.03
2017-10-20T00:08:10.627Z,997.01
2017-10-20T00:09:10.615Z,997.05
2017-10-20T00:10:10.613Z,997.04
2017-10-20T00:11:10.612Z,997.09
2017-10-20T00:12:10.612Z,997.08
2017-10-20T00:13:10.611Z,997.07
2017-10-20T00:14:10.606Z,997.11
2017-10-20T00:15:10.605Z,997.06
2017-10-20T00:16:10.603Z,997.08
2017-10-20T00:17:10.603Z,997.10
2017-10-20T00:18:10.597Z,997.14
2017-10-20T00:19:10.600Z,997.10
2017-10-20T00:20:10.593Z,997.11
2017-10-20T00:21:10.592Z,997.15
2017-10-20T00:22:10.589Z,997.07
2017-10-20T00:23:10.591Z,997.04
2017-10-20T00:24:10.589Z,997.09
2017-10-20T00:25:10.588Z,997.05
2017-10-20T00:26:10.581Z,997.08
2017-10-20T00:27:10.580Z,997.00
2017-10-20T00:28:10.579Z,997.03
2017-10-20T00:29:10.576Z,996.98
2017-10-20T00:30:10.572Z,996.98
2017-10-20T00:31:10.572Z,997.01
2017-10-20T00:32:10.570Z,997.00
2017-10-20T00:33:10.572Z,997.05
2017-10-20T00:34:10.566Z,997.00
2017-10-20T00:35:10.568Z,997.01
2017-10-20T00:36:10.561Z,997.06
2017-10-20T00:37:10.561Z,997.07
2017-10-20T00:38:10.558Z,997.04
2017-10-20T00:39:10.555Z,997.05
2017-10-20T00:40:10.554Z,997.07
2017-10-20T00:41:10.550Z,997.03
2017-10-20T00:42:10.549Z,997.03
2017-10-20T00:43:10.544Z,997.04
2017-10-20T00:44:10.542Z,997.04
2017-10-20T00:45:10.540Z,997.02
2017-10-20T00:46:10.537Z,997.00
2017-10-20T00:47:10.534Z,997.06
2017-10-20T00:48:10.533Z,996.99
2017-10-20T00:49:10.531Z,997.00
2017-10-20T00:50:10.529Z,996.99
2017-10-20T00:51:10.527Z,997.02
2017-10-20T00:52:10.524Z,996.96
2017-10-20T00:53:10.522Z,997.00
2017-10-20T00:54:10.527Z,997.02
2017-10-20T00:55:10.516Z,997.05
2017-10-20T00:56:10.513Z,996.98
2017-10-20T00:57:10.512Z,997.03
2017-10-20T00:58:10.511Z,997.09
2017-10-20T00:59:10.506Z,997.05
2017-10-20T01:00:10.504Z,997.03
2017-10-20T01:01:10.503Z,996.99
2017-10-20T01:02:10.502Z,996.98
2017-10-20T01:03:10.502Z,996.97
2017-10-20T01:04:10.494Z,996.99
2017-10-20T01:05:10.492Z,996.97
2017-10-20T01:06:10.489Z,996.99
2017-10-20T01:07:10.490Z,996.97
2017-10-20T01:08:10.722Z,996.99
2017-10-20T01:09:10.482Z,996.93
2017-10-20T01:10:10.481Z,997.00
2017-10-20T01:11:10.477Z,996.96
2017-10-20T01:12:10.474Z,997.00
2017-10-20T01:13:10.480Z,997.01
2017-10-20T01:14:10.470Z,996.95
2017-10-20T01:15:10.472Z,996.98
2017-10-20T01:16:10.465Z,996.95
2017-10-20T01:17:10.462Z,996.91
2017-10-20T01:18:10.467Z,996.96
2017-10-20T01:19:10.457Z,996.98
2017-10-20T01:20:10.454Z,996.92
2017-10-20T01:21:10.452Z,996.93
2017-10-20T01:22:10.449Z,996.94
2017-10-20T01:23:10.447Z,996.96
2017-10-20T01:24:10.443Z,996.97
2017-10-20T01:25:10.444Z,996.97
2017-10-20T01:26:10.438Z,996.98
2017-10-20T01:27:10.437Z,996.93
2017-10-20T01:28:10.436Z,996.90
2017-10-20T01:29:10.431Z,996.87
2017-10-20T01:30:10.427Z,996.90
2017-10-20T01:31:10.428Z,996.91
2017-10-20T01:32:10.422Z,996.87
2017-10-20T01:33:10.423Z,996.84
2017-10-20T01:34:10.419Z,996.84
2017-10-20T01:35:10.416Z,996.89
2017-10-20T01:36:10.413Z,996.90
2017-10-20T01:37:10.414Z,996.90
2017-10-20T01:38:10.413Z,996.84
2017-10-20T01:39:10.413Z,996.89
2017-10-20T01:40:10.403Z,996.88
2017-10-20T01:41:10.400Z,996.90
2017-10-20T01:42:10.396Z,996.90
2017-10-20T01:43:10.396Z,996.87
2017-10-20T01:44:10.394Z,996.90
2017-10-20T01:45:10.390Z,996.92
2017-10-20T01:46:10.392Z,996.88
2017-10-20T01:47:10.387Z,996.87
2017-10-20T01:48:10.384Z,996.86
2017-10-20T01:49:10.380Z,996.91
2017-10-20T01:50:10.377Z,996.90
2017-10-20T01:51:10.375Z,996.88
2017-10-20T01:52:10.373Z,996.95
2017-10-20T01:53:10.371Z,996.92
2017-10-20T01:54:10.366Z,996.95
2017-10-20T01:55:10.364Z,996.93
2017-10-20T01:56:10.363Z,996.96
2017-10-20T01:57:10.363Z,996.93
2017-10-20T01:58:10.357Z,996.95
2017-10-20T01:59:10.354Z,996.97
2017-10-20T02:00:10.353Z,996.97
2017-10-20T02:01:10.349Z,997.01
2017-10-20T02:02:10.347Z,997.00
2017-10-20T02:03:10.344Z,996.93
2017-10-20T02:04:10.343Z,996.98
2017-10-20T02:05:10.347Z,997.02
2017-10-20T02:06:10.335Z,997.02
2017-10-20T02:07:10.333Z,997.01
2017-10-20T02:08:10.331Z,996.99
2017-10-20T02:09:10.329Z,997.01
2017-10-20T02:10:10.325Z,997.02
2017-10-20T02:11:10.326Z,997.05
2017-10-20T02:12:10.322Z,997.03
2017-10-20T02:13:10.319Z,997.03
2017-10-20T02:14:10.313Z,997.03
2017-10-20T02:15:10.313Z,997.02
2017-10-20T02:16:10.309Z,997.03
2017-10-20T02:17:10.309Z,996.99
2017-10-20T02:18:10.302Z,997.00
2017-10-20T02:19:10.309Z,997.03
2017-10-20T02:20:10.297Z,996.96
2017-10-20T02:21:10.295Z,997.00
2017-10-20T02:22:10.292Z,996.99
2017-10-20T02:23:10.296Z,997.01
2017-10-20T02:24:10.287Z,997.03
2017-10-20T02:25:10.285Z,997.02
2017-10-20T02:26:10.282Z,997.05
2017-10-20T02:27:10.276Z,997.03
2017-10-20T02:28:10.277Z,997.06
2017-10-20T02:29:10.273Z,997.06
2017-10-20T02:30:10.288Z,997.03
2017-10-20T02:31:10.267Z,997.05
2017-10-20T02:32:10.265Z,997.06
2017-10-20T02:33:10.262Z,997.08
2017-10-20T02:34:10.260Z,997.03
2017-10-20T02:35:10.256Z,996.97
2017-10-20T02:36:10.254Z,997.02
2017-10-20T02:37:10.251Z,997.01
2017-10-20T02:38:10.247Z,996.98
2017-10-20T02:39:10.246Z,997.01
2017-10-20T02:40:10.249Z,996.98
2017-10-20T02:41:10.239Z,996.98
2017-10-20T02:42:10.237Z,996.98
2017-10-20T02:43:10.235Z,996.97
2017-10-20T02:44:10.235Z,996.96
2017-10-20T02:45:10.237Z,997.01
2017-10-20T02:46:10.225Z,997.03
2017-10-20T02:47:10.223Z,997.02
2017-10-20T02:48:10.222Z,996.97
2017-10-20T02:49:10.218Z,996.95
2017-10-20T02:50:10.214Z,996.93
2017-10-20T02:51:10.215Z,996.98
2017-10-20T02:52:10.208Z,996.93
2017-10-20T02:53:10.207Z,996.95
2017-10-20T02:54:10.204Z,996.88
2017-10-20T02:55:10.207Z,996.95
2017-10-20T02:56:10.197Z,996.95
2017-10-20T02:57:10.194Z,996.91
2017-10-20T02:58:10.190Z,996.96
2017-10-20T02:59:10.187Z,996.90
2017-10-20T03:00:10.184Z,996.97
2017-10-20T03:01:10.181Z,996.90
2017-10-20T03:02:10.179Z,996.92
2017-10-20T03:03:10.177Z,996.97
2017-10-20T03:04:10.173Z,997.00
2017-10-20T03:05:10.170Z,996.96
2017-10-20T03:06:10.165Z,996.94
2017-10-20T03:07:10.164Z,996.99
2017-10-20T03:08:10.160Z,996.99
2017-10-20T03:09:10.162Z,996.99
2017-10-20T03:10:10.154Z,997.02
2017-10-20T03:11:10.161Z,997.02
2017-10-20T03:12:10.163Z,997.05
2017-10-20T03:13:10.148Z,997.05
2017-10-20T03:14:10.142Z,997.07
2017-10-20T03:15:10.148Z,997.07
2017-10-20T03:16:10.136Z,997.04
2017-10-20T03:17:10.134Z,997.08
2017-10-20T03:18:37.815Z,997.09
2017-10-20T03:19:10.127Z,997.06
2017-10-20T03:20:10.124Z,997.07
2017-10-20T03:21:10.121Z,997.06
2017-10-20T03:22:10.118Z,997.11
2017-10-20T03:23:10.116Z,997.11
2017-10-20T03:24:10.112Z,997.07
2017-10-20T03:25:10.113Z,997.08
2017-10-20T03:26:10.107Z,997.07
2017-10-20T03:27:10.103Z,997.13
2017-10-20T03:28:10.100Z,997.11
2017-10-20T03:29:10.097Z,997.12
2017-10-20T03:30:10.094Z,997.16
2017-10-20T03:31:10.091Z,997.17
2017-10-20T03:32:10.088Z,997.12
2017-10-20T03:33:10.085Z,997.17
2017-10-20T03:34:10.090Z,997.15
2017-10-20T03:35:10.079Z,997.12
2017-10-20T03:36:10.075Z,997.10
2017-10-20T03:37:10.076Z,997.11
2017-10-20T03:38:10.069Z,997.09
2017-10-20T03:39:10.069Z,997.12
2017-10-20T03:40:10.063Z,997.09
2017-10-20T03:41:10.063Z,997.11
2017-10-20T03:42:10.057Z,997.12
2017-10-20T03:43:10.053Z,997.19
2017-10-20T03:44:10.052Z,997.19
2017-10-20T03:45:10.048Z,997.20
2017-10-20T03:46:10.045Z,997.19
2017-10-20T03:47:10.042Z,997.15
2017-10-20T03:48:10.042Z,997.20
2017-10-20T03:49:10.042Z,997.12
2017-10-20T03:50:10.034Z,997.10
2017-10-20T03:51:10.031Z,997.12
2017-10-20T03:52:10.028Z,997.09
2017-10-20T03:53:10.024Z,997.08
2017-10-20T03:54:10.022Z,997.10
2017-10-20T03:55:10.019Z,997.13
2017-10-20T03:56:10.026Z,997.18
2017-10-20T03:57:10.014Z,997.17
2017-10-20T03:58:10.009Z,997.13
2017-10-20T03:59:10.006Z,997.08
2017-10-20T04:00:10.004Z,997.15
2017-10-20T04:01:10.002Z,997.09
2017-10-20T04:02:09.997Z,997.11
2017-10-20T04:03:09.994Z,997.13
2017-10-20T04:04:09.992Z,997.10
2017-10-20T04:05:09.989Z,997.12
2017-10-20T04:06:09.986Z,997.10
2017-10-20T04:07:09.982Z,997.09
2017-10-20T04:08:09.980Z,997.12
2017-10-20T04:09:09.978Z,997.13
2017-10-20T04:10:09.974Z,997.11
2017-10-20T04:11:09.975Z,997.17
2017-10-20T04:12:09.973Z,997.13
2017-10-20T04:13:09.967Z,997.12
2017-10-20T04:14:09.965Z,997.12
2017-10-20T04:15:09.963Z,997.12
2017-10-20T04:16:09.959Z,997.11
2017-10-20T04:17:09.955Z,997.09
2017-10-20T04:18:09.951Z,997.05
2017-10-20T04:19:09.953Z,996.97
2017-10-20T04:20:09.948Z,997.03
2017-10-20T04:21:09.945Z,997.00
2017-10-20T04:22:09.941Z,997.01
2017-10-20T04:23:09.949Z,997.05
2017-10-20T04:24:09.939Z,997.07
2017-10-20T04:25:09.934Z,997.03
2017-10-20T04:26:09.931Z,997.01
2017-10-20T04:27:09.927Z,997.04
2017-10-20T04:28:09.926Z,997.01
2017-10-20T04:29:09.924Z,996.99
2017-10-20T04:30:09.920Z,996.97
2017-10-20T04:31:09.916Z,996.99
2017-10-20T04:32:09.914Z,997.02
2017-10-20T04:33:09.911Z,997.01
2017-10-20T04:34:09.909Z,997.01
2017-10-20T04:35:09.905Z,996.98
2017-10-20T04:36:09.904Z,996.98
2017-10-20T04:37:09.901Z,996.96
2017-10-20T04:38:09.897Z,996.96
2017-10-20T04:39:09.895Z,996.96
2017-10-20T04:40:09.892Z,996.88
2017-10-20T04:41:09.891Z,996.89
2017-10-20T04:42:09.888Z,996.91
2017-10-20T04:43:09.884Z,996.90
2017-10-20T04:44:09.885Z,996.96
2017-10-20T04:45:09.881Z,996.95
2017-10-20T04:46:09.880Z,996.99
2017-10-20T04:47:09.874Z,997.05
2017-10-20T04:48:09.873Z,997.00
2017-10-20T04:49:09.877Z,996.98
2017-10-20T04:50:09.868Z,996.98
2017-10-20T04:51:09.866Z,996.93
2017-10-20T04:52:09.862Z,996.93
2017-10-20T04:53:09.860Z,996.90
2017-10-20T04:54:09.858Z,996.85
2017-10-20T04:55:09.854Z,996.87
2017-10-20T04:56:09.852Z,996.87
2017-10-20T04:57:09.850Z,996.93
2017-10-20T04:58:09.845Z,996.82
2017-10-20T04:59:09.846Z,996.95
2017-10-20T05:00:09.842Z,996.87
2017-10-20T05:01:09.840Z,996.85
2017-10-20T05:02:09.836Z,996.89
2017-10-20T05:03:09.834Z,996.81
2017-10-20T05:04:09.832Z,996.83
2017-10-20T05:05:09.829Z,996.83
2017-10-20T05:06:09.829Z,996.80
2017-10-20T05:07:09.824Z,996.78
2017-10-20T05:08:09.824Z,996.82
2017-10-20T05:09:09.820Z,996.75
2017-10-20T05:10:09.818Z,996.74
2017-10-20T05:11:09.815Z,996.70
2017-10-20T05:12:09.821Z,996.62
2017-10-20T05:13:09.815Z,996.61
2017-10-20T05:14:09.807Z,996.62
2017-10-20T05:15:09.806Z,996.62
2017-10-20T05:16:09.802Z,996.62
2017-10-20T05:17:09.801Z,996.57
2017-10-20T05:18:09.798Z,996.56
2017-10-20T05:19:09.796Z,996.58
2017-10-20T05:20:09.794Z,996.56
2017-10-20T05:21:09.794Z,996.57
2017-10-20T05:22:09.790Z,996.58
2017-10-20T05:23:09.787Z,996.62
2017-10-20T05:24:09.785Z,996.63
2017-10-20T05:25:09.786Z,996.62
2017-10-20T05:26:09.781Z,996.65
2017-10-20T05:27:09.781Z,996.67
2017-10-20T05:28:09.778Z,996.64
2017-10-20T05:29:09.774Z,996.66
2017-10-20T05:30:09.772Z,996.66
2017-10-20T05:31:09.770Z,996.70
2017-10-20T05:32:09.768Z,996.69
2017-10-20T05:33:09.767Z,996.70
2017-10-20T05:34:09.772Z,996.63
2017-10-20T05:35:09.765Z,996.65
2017-10-20T05:36:09.759Z,996.68
2017-10-20T05:37:09.758Z,996.71
2017-10-20T05:38:09.756Z,996.69
2017-10-20T05:39:09.753Z,996.66
2017-10-20T05:40:09.752Z,996.65
2017-10-20T05:41:09.751Z,996.65
2017-10-20T05:42:09.747Z,996.65
2017-10-20T05:43:09.748Z,996.65
2017-10-20T05:44:09.749Z,996.64
2017-10-20T05:45:09.743Z,996.56
2017-10-20T05:46:09.740Z,996.60
2017-10-20T05:47:09.739Z,996.59
2017-10-20T05:48:09.738Z,996.61
2017-10-20T05:49:09.736Z,996.54
2017-10-20T05:50:09.736Z,996.59
2017-10-20T05:51:09.732Z,996.56
2017-10-20T05:52:09.732Z,996.54
2017-10-20T05:53:09.727Z,996.56
2017-10-20T05:54:09.729Z,996.57
2017-10-20T05:55:09.732Z,996.57
2017-10-20T05:56:09.727Z,996.57
2017-10-20T05:57:09.722Z,996.56
2017-10-20T05:58:09.719Z,996.55
2017-10-20T05:59:09.717Z,996.53
2017-10-20T06:00:09.715Z,996.53
2017-10-20T06:01:09.717Z,996.51
2017-10-20T06:02:09.712Z,996.51
2017-10-20T06:03:09.710Z,996.50
2017-10-20T06:04:09.708Z,996.50
2017-10-20T06:05:09.708Z,996.50
2017-10-20T06:06:09.705Z,996.54
2017-10-20T06:07:09.705Z,996.53
2017-10-20T06:08:09.701Z,996.58
2017-10-20T06:09:09.700Z,996.60
2017-10-20T06:10:09.697Z,996.62
2017-10-20T06:11:09.705Z,996.55
2017-10-20T06:12:09.694Z,996.59
2017-10-20T06:13:09.715Z,996.60
2017-10-20T06:14:09.692Z,996.55
2017-10-20T06:15:09.702Z,996.51
2017-10-20T06:16:09.690Z,996.55
2017-10-20T06:17:09.686Z,996.60
2017-10-20T06:18:09.685Z,996.60
2017-10-20T06:19:09.686Z,996.57
2017-10-20T06:20:09.681Z,996.59
2017-10-20T06:21:09.682Z,996.61
2017-10-20T06:22:09.681Z,996.57
2017-10-20T06:23:09.675Z,996.56
2017-10-20T06:24:09.675Z,996.52
2017-10-20T06:25:09.677Z,996.55
2017-10-20T06:26:09.673Z,996.49
2017-10-20T06:27:09.809Z,996.52
2017-10-20T06:28:09.667Z,996.47
2017-10-20T06:29:09.827Z,996.48
2017-10-20T06:30:09.830Z,996.51
2017-10-20T06:31:09.662Z,996.46
2017-10-20T06:32:09.663Z,996.51
2017-10-20T06:33:09.659Z,996.53
2017-10-20T06:34:09.656Z,996.48
2017-10-20T06:35:09.655Z,996.46
2017-10-20T06:36:09.653Z,996.51
2017-10-20T06:37:09.652Z,996.54
2017-10-20T06:38:09.651Z,996.54
2017-10-20T06:39:09.648Z,996.55
2017-10-20T06:40:09.648Z,996.54
2017-10-20T06:41:09.644Z,996.59
2017-10-20T06:42:09.646Z,996.55
2017-10-20T06:43:09.640Z,996.57
2017-10-20T06:44:09.640Z,996.63
2017-10-20T06:45:09.638Z,996.64
2017-10-20T06:46:09.643Z,996.68
2017-10-20T06:47:09.649Z,996.63
2017-10-20T06:48:09.632Z,996.64
2017-10-20T06:49:09.630Z,996.62
2017-10-20T06:50:09.629Z,996.61
2017-10-20T06:51:09.626Z,996.66
2017-10-20T06:52:09.625Z,996.70
2017-10-20T06:53:09.624Z,996.67
2017-10-20T06:54:09.620Z,996.69
2017-10-20T06:55:09.617Z,996.61
2017-10-20T06:56:09.621Z,996.61
2017-10-20T06:57:09.622Z,996.59
2017-10-20T06:58:09.614Z,996.54
2017-10-20T06:59:09.625Z,996.50
2017-10-20T07:00:09.609Z,996.45
2017-10-20T07:01:09.613Z,996.43
2017-10-20T07:02:09.606Z,996.38
2017-10-20T07:03:09.604Z,996.47
2017-10-20T07:04:09.603Z,996.49
2017-10-20T07:05:09.603Z,996.52
2017-10-20T07:06:09.598Z,996.51
2017-10-20T07:07:09.597Z,996.57
2017-10-20T07:08:09.596Z,996.61
2017-10-20T07:09:09.600Z,996.62
2017-10-20T07:10:09.591Z,996.60
2017-10-20T07:11:09.590Z,996.59
2017-10-20T07:12:09.587Z,996.60
2017-10-20T07:13:09.629Z,996.58
2017-10-20T07:14:09.585Z,996.59
2017-10-20T07:15:09.583Z,996.63
2017-10-20T07:16:09.582Z,996.63
2017-10-20T07:17:09.580Z,996.61
2017-10-20T07:18:09.578Z,996.63
2017-10-20T07:19:09.578Z,996.63
2017-10-20T07:20:09.574Z,996.67
2017-10-20T07:21:09.574Z,996.64
2017-10-20T07:22:09.572Z,996.63
2017-10-20T07:23:09.571Z,996.68
2017-10-20T07:24:09.574Z,996.70
2017-10-20T07:25:09.569Z,996.67
2017-10-20T07:26:09.569Z,996.70
2017-10-20T07:27:09.565Z,996.74
2017-10-20T07:28:09.565Z,996.66
2017-10-20T07:29:09.567Z,996.67
2017-10-20T07:30:09.570Z,996.72
2017-10-20T07:31:09.561Z,996.71
2017-10-20T07:32:09.559Z,996.68
2017-10-20T07:33:09.561Z,996.65
2017-10-20T07:34:09.556Z,996.70
2017-10-20T07:35:09.555Z,996.68
2017-10-20T07:36:09.555Z,996.65
2017-10-20T07:37:09.557Z,996.63
2017-10-20T07:38:09.612Z,996.67
2017-10-20T07:39:09.557Z,996.66
2017-10-20T07:40:09.780Z,996.65
2017-10-20T07:41:09.551Z,996.70
2017-10-20T07:42:09.549Z,996.69
2017-10-20T07:43:09.548Z,996.72
2017-10-20T07:44:09.547Z,996.68
2017-10-20T07:45:11.386Z,996.69
2017-10-20T07:46:09.624Z,996.67
2017-10-20T07:47:10.327Z,996.67
2017-10-20T07:48:09.543Z,996.64
2017-10-20T07:49:09.549Z,996.68
2017-10-20T07:50:09.550Z,996.71
2017-10-20T07:51:09.542Z,996.72
2017-10-20T07:52:09.551Z,996.68
2017-10-20T07:53:09.539Z,996.72
2017-10-20T07:54:09.538Z,996.73
2017-10-20T07:55:09.538Z,996.76
2017-10-20T07:56:09.542Z,996.79
2017-10-20T07:57:09.539Z,996.80
2017-10-20T07:58:09.535Z,996.78
2017-10-20T07:59:09.534Z,996.71
2017-10-20T08:00:09.537Z,996.73
2017-10-20T08:01:09.879Z,996.75
2017-10-20T08:02:09.533Z,996.75
2017-10-20T08:03:09.531Z,996.71
2017-10-20T08:04:09.532Z,996.71
2017-10-20T08:05:09.533Z,996.71
2017-10-20T08:06:09.528Z,996.71
2017-10-20T08:07:09.530Z,996.67
2017-10-20T08:08:09.529Z,996.78
2017-10-20T08:09:09.528Z,996.77
2017-10-20T08:10:09.531Z,996.78
2017-10-20T08:11:09.525Z,996.87
2017-10-20T08:12:09.526Z,996.85
2017-10-20T08:13:09.526Z,996.85
2017-10-20T08:14:09.524Z,996.79
2017-10-20T08:15:09.522Z,996.86
2017-10-20T08:16:09.522Z,996.81
2017-10-20T08:17:09.523Z,996.77
2017-10-20T08:18:09.628Z,996.76
2017-10-20T08:19:09.522Z,996.76
2017-10-20T08:20:09.743Z,996.74
2017-10-20T08:21:09.779Z,996.69
2017-10-20T08:22:09.521Z,996.72
2017-10-20T08:23:09.521Z,996.75
2017-10-20T08:24:09.541Z,996.70
2017-10-20T08:25:09.519Z,996.74
2017-10-20T08:26:09.519Z,996.74
2017-10-20T08:27:09.518Z,996.73
2017-10-20T08:28:09.533Z,996.70
2017-10-20T08:29:09.521Z,996.73
2017-10-20T08:30:09.518Z,996.76
2017-10-20T08:31:09.567Z,996.75
2017-10-20T08:32:09.517Z,996.77
2017-10-20T08:33:09.517Z,996.78
2017-10-20T08:34:09.516Z,996.78
2017-10-20T08:35:09.518Z,996.78
2017-10-20T08:36:09.521Z,996.84
2017-10-20T08:37:09.520Z,996.85
2017-10-20T08:38:09.552Z,996.81
2017-10-20T08:39:09.515Z,996.78
2017-10-20T08:40:09.515Z,996.80
2017-10-20T08:41:09.516Z,996.76
2017-10-20T08:42:09.516Z,996.76
2017-10-20T08:43:09.525Z,996.78
2017-10-20T08:44:09.540Z,996.72
2017-10-20T08:45:09.524Z,996.75
2017-10-20T08:46:09.517Z,996.74
2017-10-20T08:47:09.516Z,996.73
2017-10-20T08:48:09.518Z,996.75
2017-10-20T08:49:09.517Z,996.77
2017-10-20T08:50:09.518Z,996.74
2017-10-20T08:51:09.518Z,996.78
2017-10-20T08:52:09.519Z,996.77
2017-10-20T08:53:09.533Z,996.75
2017-10-20T08:54:09.524Z,996.74
2017-10-20T08:55:09.525Z,996.78
2017-10-20T08:56:09.521Z,996.79
2017-10-20T08:57:09.524Z,996.80
2017-10-20T08:58:09.531Z,996.78
2017-10-20T08:59:09.522Z,996.81
2017-10-20T09:00:09.523Z,996.80
2017-10-20T09:01:09.524Z,996.79
2017-10-20T09:02:09.524Z,996.83
2017-10-20T09:03:09.526Z,996.84
2017-10-20T09:04:09.526Z,996.87
2017-10-20T09:05:09.528Z,996.86
2017-10-20T09:06:09.526Z,996.83
2017-10-20T09:07:09.535Z,996.85
2017-10-20T09:08:09.529Z,996.79
2017-10-20T09:09:09.531Z,996.83
2017-10-20T09:10:09.530Z,996.80
2017-10-20T09:11:09.530Z,996.82
2017-10-20T09:12:09.531Z,996.76
2017-10-20T09:13:09.532Z,996.80
2017-10-20T09:14:09.536Z,996.83
2017-10-20T09:15:09.543Z,996.81
2017-10-20T09:16:09.534Z,996.82
2017-10-20T09:17:09.535Z,996.81
2017-10-20T09:18:09.546Z,996.85
2017-10-20T09:19:09.538Z,996.87
2017-10-20T09:20:09.539Z,996.86
2017-10-20T09:21:09.540Z,996.87
2017-10-20T09:22:09.542Z,996.86
2017-10-20T09:23:09.541Z,996.90
2017-10-20T09:24:09.548Z,996.93
2017-10-20T09:25:09.544Z,996.89
2017-10-20T09:26:09.546Z,996.90
2017-10-20T09:27:09.547Z,996.92
2017-10-20T09:28:09.548Z,996.92
2017-10-20T09:29:09.550Z,996.94
2017-10-20T09:30:09.554Z,996.95
2017-10-20T09:31:09.551Z,996.94
2017-10-20T09:32:09.553Z,996.92
2017-10-20T09:33:09.555Z,996.88
2017-10-20T09:34:09.557Z,996.88
2017-10-20T09:35:09.557Z,996.86
2017-10-20T09:36:09.566Z,996.84
2017-10-20T09:37:09.561Z,996.82
2017-10-20T09:38:10.354Z,996.83
2017-10-20T09:39:09.564Z,996.86
2017-10-20T09:40:10.327Z,996.86
2017-10-20T09:41:09.575Z,996.85
2017-10-20T09:42:09.671Z,996.83
2017-10-20T09:43:09.570Z,996.83
2017-10-20T09:44:09.587Z,996.83
2017-10-20T09:45:09.574Z,996.80
2017-10-20T09:46:09.575Z,996.84
2017-10-20T09:47:09.578Z,996.88
2017-10-20T09:48:09.579Z,996.86
2017-10-20T09:49:09.580Z,996.90
2017-10-20T09:50:09.583Z,996.94
2017-10-20T09:51:09.584Z,996.96
2017-10-20T09:52:09.588Z,996.88
2017-10-20T09:53:09.591Z,996.88
2017-10-20T09:54:09.589Z,996.92
2017-10-20T09:55:09.593Z,996.91
2017-10-20T09:56:09.602Z,996.91
2017-10-20T09:57:09.613Z,996.86
2017-10-20T09:58:09.599Z,996.84
2017-10-20T09:59:09.612Z,996.85
2017-10-20T10:00:09.602Z,996.89
2017-10-20T10:01:09.914Z,996.87
2017-10-20T10:02:09.606Z,996.88
2017-10-20T10:03:09.609Z,996.93
2017-10-20T10:04:09.611Z,996.90
2017-10-20T10:05:09.613Z,996.94
2017-10-20T10:06:09.615Z,996.88
2017-10-20T10:07:09.621Z,996.88
2017-10-20T10:08:09.620Z,996.88
2017-10-20T10:09:09.623Z,996.88
2017-10-20T10:10:09.623Z,996.90
2017-10-20T10:11:09.628Z,996.83
2017-10-20T10:12:09.628Z,996.78
2017-10-20T10:13:09.630Z,996.75
2017-10-20T10:14:09.634Z,996.74
2017-10-20T10:15:09.634Z,996.68
2017-10-20T10:16:09.637Z,996.65
2017-10-20T10:17:09.639Z,996.66
2017-10-20T10:18:09.640Z,996.62
2017-10-20T10:19:09.642Z,996.60
2017-10-20T10:20:09.649Z,996.64
2017-10-20T10:21:09.649Z,996.66
2017-10-20T10:22:09.653Z,996.61
2017-10-20T10:23:09.654Z,996.64
2017-10-20T10:24:09.655Z,996.62
2017-10-20T10:25:09.659Z,996.63
2017-10-20T10:26:09.659Z,996.66
2017-10-20T10:27:09.662Z,996.62
2017-10-20T10:28:09.664Z,996.66
2017-10-20T10:29:09.667Z,996.63
2017-10-20T10:30:09.669Z,996.63
2017-10-20T10:31:09.672Z,996.63
2017-10-20T10:32:09.821Z,996.65
2017-10-20T10:33:09.679Z,996.67
2017-10-20T10:34:09.678Z,996.64
2017-10-20T10:35:09.683Z,996.72
2017-10-20T10:36:09.685Z,996.76
2017-10-20T10:37:09.689Z,996.74
2017-10-20T10:38:09.688Z,996.77
2017-10-20T10:39:09.691Z,996.79
2017-10-20T10:40:09.695Z,996.80
2017-10-20T10:41:09.820Z,996.80
2017-10-20T10:42:10.333Z,996.79
2017-10-20T10:43:09.725Z,996.81
2017-10-20T10:44:09.866Z,996.79
2017-10-20T10:45:09.707Z,996.77
2017-10-20T10:46:09.711Z,996.76
2017-10-20T10:47:09.713Z,996.75
2017-10-20T10:48:09.711Z,996.80
2017-10-20T10:49:10.425Z,996.80
2017-10-20T10:50:09.979Z,996.79
2017-10-20T10:51:09.848Z,996.74
2017-10-20T10:52:09.866Z,996.73
2017-10-20T10:53:09.818Z,996.69
2017-10-20T10:54:09.727Z,996.72
2017-10-20T10:55:09.729Z,996.70
2017-10-20T10:56:09.737Z,996.71
2017-10-20T10:57:09.750Z,996.73
2017-10-20T10:58:09.750Z,996.76
2017-10-20T10:59:09.743Z,996.77
2017-10-20T11:00:09.745Z,996.74
2017-10-20T11:01:09.745Z,996.71
2017-10-20T11:02:09.751Z,996.67
2017-10-20T11:03:09.764Z,996.68
2017-10-20T11:04:09.750Z,996.66
2017-10-20T11:05:09.780Z,996.65
2017-10-20T11:06:09.756Z,996.64
2017-10-20T11:07:09.758Z,996.70
2017-10-20T11:08:09.787Z,996.71
2017-10-20T11:09:09.763Z,996.61
2017-10-20T11:10:09.768Z,996.68
2017-10-20T11:11:09.768Z,996.62
2017-10-20T11:12:09.770Z,996.65
2017-10-20T11:13:09.773Z,996.63
2017-10-20T11:14:09.776Z,996.60
2017-10-20T11:15:09.778Z,996.63
2017-10-20T11:16:09.781Z,996.66
2017-10-20T11:17:09.784Z,996.61
2017-10-20T11:18:09.788Z,996.64
2017-10-20T11:19:09.789Z,996.59
2017-10-20T11:20:09.806Z,996.54
2017-10-20T11:21:09.794Z,996.55
2017-10-20T11:22:09.795Z,996.48
2017-10-20T11:23:09.804Z,996.49
2017-10-20T11:24:09.832Z,996.53
2017-10-20T11:25:09.833Z,996.55
2017-10-20T11:26:09.818Z,996.54
2017-10-20T11:27:09.811Z,996.56
2017-10-20T11:28:09.818Z,996.57
2017-10-20T11:29:09.815Z,996.57
2017-10-20T11:30:09.818Z,996.54
2017-10-20T11:31:09.859Z,996.50
2017-10-20T11:32:09.824Z,996.45
2017-10-20T11:33:09.827Z,996.47
2017-10-20T11:34:09.831Z,996.42
2017-10-20T11:35:09.843Z,996.44
2017-10-20T11:36:09.833Z,996.50
2017-10-20T11:37:09.837Z,996.53
2017-10-20T11:38:09.839Z,996.55
2017-10-20T11:39:09.844Z,996.59
2017-10-20T11:40:09.846Z,996.62
2017-10-20T11:41:09.853Z,996.60
2017-10-20T11:42:09.852Z,996.66
2017-10-20T11:43:09.853Z,996.57
2017-10-20T11:44:09.870Z,996.59
2017-10-20T11:45:09.861Z,996.56
2017-10-20T11:46:09.868Z,996.59
2017-10-20T11:47:09.865Z,996.56
2017-10-20T11:48:09.867Z,996.50
2017-10-20T11:49:09.882Z,996.53
2017-10-20T11:50:09.874Z,996.54
2017-10-20T11:51:09.876Z,996.54
2017-10-20T11:52:09.897Z,996.51
2017-10-20T11:53:09.883Z,996.55
2017-10-20T11:54:09.886Z,996.57
2017-10-20T11:55:09.890Z,996.62
2017-10-20T11:56:09.891Z,996.60
2017-10-20T11:57:09.895Z,996.68
2017-10-20T11:58:09.901Z,996.67
2017-10-20T11:59:09.968Z,996.63
2017-10-20T12:00:09.915Z,996.58
2017-10-20T12:01:09.908Z,996.57
2017-10-20T12:02:09.912Z,996.55
2017-10-20T12:03:09.913Z,996.52
2017-10-20T12:04:09.919Z,996.55
2017-10-20T12:05:09.919Z,996.57
2017-10-20T12:06:09.923Z,996.56
2017-10-20T12:07:09.926Z,996.57
2017-10-20T12:08:09.928Z,996.50
2017-10-20T12:09:09.932Z,996.50
2017-10-20T12:10:09.936Z,996.46
2017-10-20T12:11:09.947Z,996.41
2017-10-20T12:12:09.941Z,996.42
2017-10-20T12:13:09.953Z,996.38
2017-10-20T12:14:09.953Z,996.37
2017-10-20T12:15:09.956Z,996.37
2017-10-20T12:16:09.967Z,996.35
2017-10-20T12:17:09.976Z,996.34
2017-10-20T12:18:09.962Z,996.31
2017-10-20T12:19:09.965Z,996.35
2017-10-20T12:20:09.974Z,996.32
2017-10-20T12:21:09.972Z,996.31
2017-10-20T12:22:09.989Z,996.25
2017-10-20T12:23:09.984Z,996.33
2017-10-20T12:24:09.984Z,996.35
2017-10-20T12:25:09.999Z,996.38
2017-10-20T12:26:09.988Z,996.42
2017-10-20T12:27:09.993Z,996.47
2017-10-20T12:28:10.008Z,996.42